Time;durP1;ratioP1;P1;durP2;ratioP2;P2;SDS_P1;SDS_P2;PMS_P1;PMS_P2;Temp;Humidity;BMP_temperature;BMP_pressure;BME280_temperature;BME280_humidity;BME280_pressure;Samples;Min_cycle;Max_cycle;Signal;HPM_P1;HPM_P2
2023/10/05 00:01:05;;;;;;;9.33;4.40;;;14.20;1.00;;;;;;5051247;28;20436;-78
2023/10/05 00:03:31;;;;;;;12.40;4.47;;;14.20;1.00;;;;;;5035053;28;20443;-79
2023/10/05 00:06:23;;;;;;;13.97;4.37;;;14.20;1.00;;;;;;5034092;28;20428;-78
2023/10/05 00:08:49;;;;;;;11.30;4.60;;;14.30;1.00;;;;;;5053730;28;20915;-78
2023/10/05 00:11:23;;;;;;;11.80;4.37;;;14.20;1.00;;;;;;5035709;28;20799;-79
2023/10/05 00:13:59;;;;;;;10.10;4.77;;;14.20;1.00;;;;;;5053534;28;20490;-79
2023/10/05 00:16:36;;;;;;;12.63;4.57;;;14.30;1.00;;;;;;5035734;28;20423;-78
2023/10/05 00:19:10;;;;;;;10.97;4.40;;;14.30;1.00;;;;;;5037483;28;20467;-77
2023/10/05 00:21:35;;;;;;;10.00;4.37;;;14.30;1.00;;;;;;5035591;28;20425;-79
2023/10/05 00:24:03;;;;;;;11.83;4.40;;;14.30;1.00;;;;;;5035350;28;20436;-79
2023/10/05 00:26:32;;;;;;;7.70;3.93;;;14.30;1.00;;;;;;5052706;28;20182;-79
2023/10/05 00:29:07;;;;;;;12.43;5.67;;;14.30;99.90;;;;;;5035754;28;20988;-79
2023/10/05 00:31:38;;;;;;;8.23;3.30;;;14.30;99.90;;;;;;5053329;28;20961;-78
2023/10/05 00:34:11;;;;;;;8.03;3.23;;;14.30;99.90;;;;;;5035154;28;20863;-78
2023/10/05 00:36:39;;;;;;;12.07;3.90;;;14.30;99.90;;;;;;5050585;28;20428;-78
2023/10/05 00:39:08;;;;;;;8.03;3.97;;;14.30;99.90;;;;;;5035415;28;20429;-78
2023/10/05 00:41:34;;;;;;;9.43;3.67;;;14.30;99.90;;;;;;5053522;28;20413;-79
2023/10/05 00:44:00;;;;;;;9.77;4.07;;;14.30;1.00;;;;;;5052424;28;20799;-79
2023/10/05 00:46:25;;;;;;;7.87;3.33;;;14.30;1.00;;;;;;5052221;28;20186;-78
2023/10/05 00:49:03;;;;;;;9.77;3.63;;;14.30;1.00;;;;;;5053058;28;20182;-79
2023/10/05 00:51:31;;;;;;;7.40;3.70;;;14.30;1.00;;;;;;5050020;28;20560;-78
2023/10/05 00:54:03;;;;;;;10.60;4.70;;;14.30;1.00;;;;;;5034840;28;20890;-79
2023/10/05 00:56:33;;;;;;;15.47;4.17;;;14.30;1.00;;;;;;5034729;28;20490;-79
2023/10/05 00:59:05;;;;;;;11.53;3.40;;;14.30;1.00;;;;;;5034761;28;20869;-79
2023/10/05 01:01:34;;;;;;;8.50;3.97;;;14.30;1.00;;;;;;5034415;28;20433;-79
2023/10/05 01:04:23;;;;;;;10.63;3.93;;;14.30;1.00;;;;;;5034723;28;20865;-78
2023/10/05 01:06:56;;;;;;;13.23;5.00;;;14.40;1.00;;;;;;5034945;28;20421;-79
2023/10/05 01:12:13;;;;;;;8.80;3.70;;;14.40;1.00;;;;;;5052286;28;20479;-79
2023/10/05 01:14:46;;;;;;;16.73;4.63;;;14.40;1.00;;;;;;5034445;28;20531;-79
2023/10/05 01:17:12;;;;;;;13.40;3.90;;;14.30;1.00;;;;;;5034594;28;20429;-78
2023/10/05 01:19:39;;;;;;;11.43;4.40;;;14.40;1.00;;;;;;5052440;28;20412;-78
2023/10/05 01:22:11;;;;;;;10.53;4.10;;;14.30;99.90;;;;;;5052616;28;20455;-79
2023/10/05 01:24:37;;;;;;;10.83;3.00;;;14.30;99.90;;;;;;5035607;28;20472;-78
2023/10/05 01:27:03;;;;;;;9.87;3.40;;;14.30;99.90;;;;;;5049372;28;20480;-79
2023/10/05 01:29:29;;;;;;;7.50;3.50;;;14.30;99.90;;;;;;5052126;28;20193;-78
2023/10/05 01:31:56;;;;;;;11.40;4.20;;;14.30;96.10;;;;;;5034041;28;20464;-79
2023/10/05 01:34:21;;;;;;;8.07;3.40;;;14.30;99.90;;;;;;5052373;28;20221;-78
2023/10/05 01:36:47;;;;;;;8.83;3.80;;;14.30;99.90;;;;;;5053267;28;20444;-77
2023/10/05 01:39:12;;;;;;;8.00;3.40;;;14.30;99.90;;;;;;5055898;28;20687;-79
2023/10/05 01:41:38;;;;;;;8.90;3.80;;;14.30;99.90;;;;;;5038106;28;20182;-77
2023/10/05 01:44:04;;;;;;;8.30;3.37;;;14.30;99.90;;;;;;5049834;28;20212;-78
2023/10/05 01:46:36;;;;;;;10.83;3.73;;;14.40;10.00;;;;;;5051742;28;20178;-79
2023/10/05 01:49:01;;;;;;;10.17;3.63;;;14.30;99.90;;;;;;5034039;28;20902;-78
2023/10/05 01:51:28;;;;;;;8.30;3.30;;;14.30;92.80;;;;;;5051508;28;20524;-78
2023/10/05 01:53:59;;;;;;;11.50;3.20;;;14.30;2.10;;;;;;5033549;28;20198;-78
2023/10/05 01:56:24;;;;;;;9.43;3.10;;;14.30;92.30;;;;;;5035238;28;20432;-79
2023/10/05 01:58:52;;;;;;;6.60;3.80;;;14.30;1.00;;;;;;5051608;28;20911;-77
2023/10/05 02:01:21;;;;;;;11.87;3.60;;;14.30;48.30;;;;;;5033035;28;20232;-79
2023/10/05 02:03:54;;;;;;;8.33;3.40;;;14.30;99.90;;;;;;5033409;28;20468;-78
2023/10/05 02:06:20;;;;;;;7.70;3.07;;;14.30;51.80;;;;;;5049809;28;20421;-78
2023/10/05 02:08:46;;;;;;;7.30;3.27;;;14.30;35.80;;;;;;5033132;28;20412;-78
2023/10/05 02:11:19;;;;;;;10.13;3.87;;;14.30;1.00;;;;;;5051339;28;20964;-79
2023/10/05 02:13:45;;;;;;;9.53;2.83;;;14.30;1.00;;;;;;5035630;28;20235;-78
2023/10/05 02:16:16;;;;;;;9.70;3.10;;;14.30;99.90;;;;;;5034742;28;20428;-78
2023/10/05 02:18:42;;;;;;;7.87;3.33;;;14.30;1.00;;;;;;5052341;28;20429;-78
2023/10/05 02:21:17;;;;;;;7.67;2.87;;;14.30;1.00;;;;;;5033923;28;20808;-79
2023/10/05 02:23:44;;;;;;;10.63;3.33;;;14.30;1.00;;;;;;5051160;28;20279;-77
2023/10/05 02:29:14;;;;;;;9.20;2.27;;;14.30;29.50;;;;;;4987267;28;20442;-77
2023/10/05 02:31:56;;;;;;;8.73;2.93;;;14.30;99.90;;;;;;5037832;28;20420;-77
2023/10/05 02:34:21;;;;;;;6.13;3.33;;;14.30;99.90;;;;;;5033213;28;21058;-78
2023/10/05 02:36:47;;;;;;;9.90;3.40;;;14.30;1.00;;;;;;5051016;28;20440;-77
2023/10/05 02:39:14;;;;;;;9.50;2.77;;;14.30;1.00;;;;;;5051394;28;20182;-77
2023/10/05 02:41:39;;;;;;;6.70;2.93;;;14.30;1.00;;;;;;5051008;28;20926;-77
2023/10/05 02:44:18;;;;;;;8.37;2.83;;;14.30;1.00;;;;;;5050834;28;20468;-77
2023/10/05 02:46:49;;;;;;;10.27;3.73;;;14.30;1.00;;;;;;5036275;28;20209;-77
2023/10/05 02:49:19;;;;;;;9.70;3.03;;;14.30;1.00;;;;;;5033166;28;20478;-80
2023/10/05 02:51:46;;;;;;;7.50;3.57;;;14.30;1.00;;;;;;5034918;28;21026;-77
2023/10/05 02:54:12;;;;;;;8.13;3.13;;;14.30;1.00;;;;;;5035563;28;20521;-79
2023/10/05 02:56:41;;;;;;;7.33;2.80;;;14.30;56.00;;;;;;5052362;28;20503;-79
2023/10/05 02:59:08;;;;;;;9.03;3.23;;;14.20;99.90;;;;;;5050884;28;20432;-79
2023/10/05 03:01:36;;;;;;;7.00;2.80;;;14.20;94.00;;;;;;5050626;28;20452;-78
2023/10/05 03:04:16;;;;;;;6.30;2.60;;;14.20;10.50;;;;;;5047835;28;20452;-78
2023/10/05 03:06:45;;;;;;;9.63;3.03;;;14.20;99.90;;;;;;5031841;28;20486;-78
2023/10/05 03:09:10;;;;;;;10.60;3.00;;;14.20;99.90;;;;;;5049625;28;20417;-79
2023/10/05 03:11:41;;;;;;;19.77;4.13;;;14.20;99.90;;;;;;5032475;28;20847;-78
2023/10/05 03:14:11;;;;;;;15.63;3.37;;;14.20;99.90;;;;;;5050322;28;20225;-78
2023/10/05 03:16:43;;;;;;;8.27;3.10;;;14.20;99.90;;;;;;5050508;28;20420;-78
2023/10/05 03:19:15;;;;;;;11.37;3.87;;;14.20;99.90;;;;;;5050611;28;20448;-78
2023/10/05 03:21:41;;;;;;;8.17;3.33;;;14.10;99.90;;;;;;5047873;28;20464;-79
2023/10/05 03:24:13;;;;;;;9.30;3.77;;;14.10;99.90;;;;;;5032504;28;20475;-79
2023/10/05 03:26:42;;;;;;;10.03;3.27;;;14.10;99.90;;;;;;5050254;28;20182;-79
2023/10/05 03:29:11;;;;;;;7.90;3.77;;;14.10;99.90;;;;;;5032809;28;20926;-78
2023/10/05 03:31:43;;;;;;;8.87;3.03;;;14.10;99.90;;;;;;5050251;28;20499;-79
2023/10/05 03:34:11;;;;;;;7.77;3.47;;;14.10;99.90;;;;;;5050576;28;20809;-78
2023/10/05 03:36:37;;;;;;;6.00;2.97;;;14.10;1.00;;;;;;5050456;28;20866;-79
2023/10/05 03:39:06;;;;;;;9.03;3.57;;;14.10;1.00;;;;;;5047231;28;20515;-79
2023/10/05 03:41:32;;;;;;;6.77;3.20;;;14.10;1.00;;;;;;5050233;28;20189;-79
2023/10/05 03:44:02;;;;;;;7.13;2.80;;;14.10;1.00;;;;;;5050073;28;20440;-78
2023/10/05 03:46:28;;;;;;;7.37;2.83;;;14.10;1.00;;;;;;5032337;28;20189;-78
2023/10/05 03:49:02;;;;;;;5.20;2.53;;;14.00;1.00;;;;;;5032423;28;20413;-79
2023/10/05 03:51:28;;;;;;;9.20;3.67;;;14.00;1.00;;;;;;5050543;28;20420;-79
2023/10/05 03:53:54;;;;;;;8.33;2.87;;;14.00;1.00;;;;;;5049938;28;20440;-79
2023/10/05 03:56:21;;;;;;;10.80;2.77;;;14.00;1.00;;;;;;5047450;28;20443;-77
2023/10/05 03:58:47;;;;;;;10.90;3.60;;;14.00;1.00;;;;;;5049841;28;20689;-79
2023/10/05 04:01:13;;;;;;;6.07;2.53;;;14.10;1.00;;;;;;5050168;28;20417;-78
2023/10/05 04:03:40;;;;;;;6.57;3.17;;;14.10;1.00;;;;;;5031907;28;20436;-79
2023/10/05 04:06:18;;;;;;;8.37;3.30;;;14.10;1.00;;;;;;5050043;28;20178;-78
2023/10/05 04:08:49;;;;;;;6.93;2.90;;;14.10;1.00;;;;;;5032161;28;20424;-79
2023/10/05 04:11:16;;;;;;;7.00;3.20;;;14.10;1.00;;;;;;5032255;28;20913;-79
2023/10/05 04:13:43;;;;;;;9.53;3.50;;;14.10;1.00;;;;;;5046770;28;20959;-78
2023/10/05 04:16:17;;;;;;;6.70;3.23;;;14.10;1.00;;;;;;5031730;28;20425;-78
2023/10/05 04:18:43;;;;;;;10.80;3.40;;;14.10;1.00;;;;;;5049711;28;20416;-78
2023/10/05 04:21:10;;;;;;;5.23;2.83;;;14.10;1.00;;;;;;5052504;28;20431;-80
2023/10/05 04:23:35;;;;;;;12.53;3.00;;;14.10;1.00;;;;;;5053923;28;20201;-78
2023/10/05 04:26:01;;;;;;;8.50;2.97;;;14.00;1.00;;;;;;5056541;28;20832;-78
2023/10/05 04:28:33;;;;;;;9.73;3.33;;;14.00;1.00;;;;;;5057582;28;20664;-77
2023/10/05 04:30:59;;;;;;;20.90;4.10;;;14.00;99.80;;;;;;5038809;28;20186;-78
2023/10/05 04:33:28;;;;;;;9.60;3.00;;;13.90;99.90;;;;;;5035653;28;20474;-78
2023/10/05 04:35:54;;;;;;;7.80;3.00;;;13.90;99.90;;;;;;5053422;28;20174;-78
2023/10/05 04:38:25;;;;;;;4.97;2.87;;;13.90;99.90;;;;;;5053216;28;20466;-79
2023/10/05 04:40:54;;;;;;;19.40;4.17;;;13.80;99.90;;;;;;5053175;28;20424;-78
2023/10/05 04:43:21;;;;;;;8.47;3.33;;;13.80;99.90;;;;;;5052871;28;20494;-79
2023/10/05 04:45:47;;;;;;;13.93;3.70;;;13.80;99.90;;;;;;5052853;28;20499;-78
2023/10/05 04:48:12;;;;;;;9.73;3.40;;;13.70;1.00;;;;;;5032515;28;20523;-78
2023/10/05 04:50:41;;;;;;;10.23;3.20;;;13.70;1.00;;;;;;5052812;28;20262;-78
2023/10/05 04:53:13;;;;;;;9.23;3.10;;;13.70;1.00;;;;;;5052683;28;20699;-78
2023/10/05 04:55:43;;;;;;;9.30;2.90;;;13.70;1.00;;;;;;5052995;28;20408;-78
2023/10/05 04:58:22;;;;;;;9.07;2.60;;;13.70;1.00;;;;;;5052589;28;20516;-78
2023/10/05 05:03:56;;;;;;;5.87;2.30;;;13.70;1.00;;;;;;5052640;28;21145;-79
2023/10/05 05:08:38;;;;;;;8.37;2.80;;;13.70;1.00;;;;;;5050447;28;20481;-77
2023/10/05 05:11:08;;;;;;;9.70;3.40;;;13.70;1.00;;;;;;5052432;28;20784;-79
2023/10/05 05:13:34;;;;;;;11.63;3.30;;;13.70;1.00;;;;;;5051944;28;20836;-79
2023/10/05 05:16:00;;;;;;;12.07;2.83;;;13.80;1.00;;;;;;5052561;28;20461;-78
2023/10/05 05:18:25;;;;;;;10.63;3.33;;;13.80;1.00;;;;;;5052434;28;20178;-79
2023/10/05 05:20:53;;;;;;;6.67;3.20;;;13.80;1.00;;;;;;5052228;28;20448;-78
2023/10/05 05:23:19;;;;;;;9.97;3.90;;;13.80;1.00;;;;;;5049050;28;20205;-77
2023/10/05 05:25:51;;;;;;;5.30;2.23;;;13.80;3.00;;;;;;5052316;28;20906;-78
2023/10/05 05:28:17;;;;;;;11.50;3.20;;;13.80;1.00;;;;;;5052259;28;20182;-78
2023/10/05 05:30:42;;;;;;;9.10;3.23;;;13.80;1.00;;;;;;5051587;28;20922;-79
2023/10/05 05:33:13;;;;;;;6.67;2.83;;;13.80;1.00;;;;;;5033974;28;20209;-78
2023/10/05 05:35:39;;;;;;;9.70;3.07;;;13.80;1.00;;;;;;5052168;28;20174;-78
2023/10/05 05:38:09;;;;;;;9.30;3.43;;;13.80;1.00;;;;;;5052119;28;20421;-77
2023/10/05 05:40:38;;;;;;;7.37;2.60;;;13.80;1.00;;;;;;5049179;28;20440;-78
2023/10/05 05:43:11;;;;;;;6.53;3.17;;;13.80;6.40;;;;;;5051677;28;20821;-79
2023/10/05 05:45:43;;;;;;;9.90;3.00;;;13.80;1.00;;;;;;5033606;28;20431;-78
2023/10/05 05:48:09;;;;;;;11.40;3.43;;;13.80;1.00;;;;;;5051981;28;20427;-78
2023/10/05 05:50:39;;;;;;;15.37;3.60;;;13.90;1.00;;;;;;5052345;28;20726;-78
2023/10/05 05:53:06;;;;;;;8.03;3.47;;;13.90;1.00;;;;;;5051573;28;20555;-78
2023/10/05 05:55:32;;;;;;;7.97;2.83;;;13.90;1.00;;;;;;5051820;28;20412;-79
2023/10/05 05:57:59;;;;;;;9.80;3.53;;;13.90;1.00;;;;;;5049420;28;20452;-79
2023/10/05 06:00:25;;;;;;;8.10;3.07;;;13.90;1.00;;;;;;5052413;28;20421;-78
2023/10/05 06:02:50;;;;;;;7.90;2.80;;;14.00;1.00;;;;;;5051873;28;20818;-78
2023/10/05 06:05:16;;;;;;;9.33;3.70;;;14.00;1.00;;;;;;5051684;28;20420;-77
2023/10/05 06:07:43;;;;;;;9.53;3.30;;;14.00;1.00;;;;;;5051501;28;20184;-78
2023/10/05 06:10:13;;;;;;;11.60;3.50;;;14.00;1.00;;;;;;5051537;28;20228;-78
2023/10/05 06:12:41;;;;;;;8.87;3.50;;;14.10;1.00;;;;;;5051062;28;20682;-79
2023/10/05 06:15:07;;;;;;;8.80;3.50;;;14.10;1.00;;;;;;5030745;28;20441;-79
2023/10/05 06:17:34;;;;;;;12.47;3.80;;;14.20;1.00;;;;;;5051521;28;20907;-79
2023/10/05 06:20:04;;;;;;;9.50;3.63;;;14.20;1.00;;;;;;5033374;28;20421;-78
2023/10/05 06:22:29;;;;;;;10.23;3.23;;;14.30;1.00;;;;;;5033189;28;20428;-76
2023/10/05 06:24:55;;;;;;;10.93;3.30;;;14.30;99.90;;;;;;5051127;28;20428;-78
2023/10/05 06:27:21;;;;;;;14.13;3.43;;;14.30;99.90;;;;;;5051375;28;20788;-79
2023/10/05 06:29:47;;;;;;;9.93;3.20;;;14.40;99.90;;;;;;5048669;28;20207;-77
2023/10/05 06:32:12;;;;;;;7.40;3.17;;;14.40;99.90;;;;;;5050879;28;20549;-78
2023/10/05 06:34:38;;;;;;;8.10;3.83;;;14.50;99.90;;;;;;5051054;28;20440;-79
2023/10/05 06:37:04;;;;;;;8.47;3.17;;;14.50;99.90;;;;;;5048127;28;20266;-78
2023/10/05 06:39:32;;;;;;;8.90;3.80;;;14.60;45.60;;;;;;5046454;28;20183;-79
2023/10/05 06:41:58;;;;;;;9.27;3.23;;;14.60;1.00;;;;;;5033041;28;20938;-78
2023/10/05 06:44:24;;;;;;;11.60;3.53;;;14.70;1.00;;;;;;5050206;28;20486;-78
2023/10/05 06:46:50;;;;;;;11.30;3.30;;;14.70;1.00;;;;;;5033359;28;20748;-78
2023/10/05 06:49:16;;;;;;;10.70;3.20;;;14.80;99.90;;;;;;5049738;28;20462;-79
2023/10/05 06:51:45;;;;;;;12.20;3.30;;;14.90;99.90;;;;;;5052998;28;20178;-80
2023/10/05 06:54:11;;;;;;;14.53;3.60;;;14.90;99.90;;;;;;5053368;28;20206;-79
2023/10/05 06:56:37;;;;;;;11.20;3.50;;;14.90;1.00;;;;;;5040036;28;20954;-79
2023/10/05 06:59:07;;;;;;;7.17;3.10;;;15.00;1.00;;;;;;5036269;28;20448;-79
2023/10/05 07:01:34;;;;;;;10.40;3.23;;;15.00;1.00;;;;;;5036386;28;20412;-80
2023/10/05 07:04:00;;;;;;;12.30;3.77;;;15.10;1.00;;;;;;5053498;28;20437;-80
2023/10/05 07:06:29;;;;;;;7.40;3.80;;;15.10;99.90;;;;;;5050811;28;20443;-79
2023/10/05 07:08:56;;;;;;;10.77;3.90;;;15.10;99.90;;;;;;5053706;28;20917;-79
2023/10/05 07:11:22;;;;;;;10.23;3.40;;;15.20;99.90;;;;;;5036331;28;20455;-80
2023/10/05 07:13:48;;;;;;;6.30;2.77;;;15.20;99.90;;;;;;5054885;28;20480;-79
2023/10/05 07:16:15;;;;;;;8.93;3.03;;;15.30;1.00;;;;;;5054689;28;20764;-80
2023/10/05 07:18:41;;;;;;;9.50;3.20;;;15.30;1.00;;;;;;5053286;28;20969;-78
2023/10/05 07:21:08;;;;;;;13.57;4.00;;;15.50;99.90;;;;;;5052893;28;20420;-78
2023/10/05 07:23:38;;;;;;;9.20;3.37;;;15.50;99.90;;;;;;5050801;28;20447;-78
2023/10/05 07:26:07;;;;;;;7.03;2.83;;;15.60;1.00;;;;;;5052522;28;20433;-79
2023/10/05 07:28:34;;;;;;;21.23;4.50;;;15.70;99.90;;;;;;5053718;28;20527;-79
2023/10/05 07:31:02;;;;;;;21.83;3.00;;;15.80;99.90;;;;;;5053413;28;20427;-79
2023/10/05 07:33:29;;;;;;;8.90;3.10;;;15.80;1.00;;;;;;5053556;28;20476;-79
2023/10/05 07:35:54;;;;;;;6.00;2.80;;;15.90;1.00;;;;;;5053721;28;20500;-78
2023/10/05 07:38:22;;;;;;;9.20;3.10;;;16.00;99.90;;;;;;5054370;28;20856;-79
2023/10/05 07:40:47;;;;;;;7.50;2.93;;;16.10;99.90;;;;;;5053914;28;20170;-79
2023/10/05 07:43:13;;;;;;;17.70;3.63;;;16.10;36.90;;;;;;5033084;28;20517;-78
2023/10/05 07:45:38;;;;;;;10.13;3.37;;;16.30;1.00;;;;;;5053954;28;20193;-80
2023/10/05 07:48:06;;;;;;;8.50;3.40;;;16.40;1.00;;;;;;5053662;28;20926;-80
2023/10/05 07:50:32;;;;;;;8.40;3.30;;;16.50;99.90;;;;;;5054548;28;20177;-80
2023/10/05 07:52:58;;;;;;;8.50;3.10;;;16.60;99.90;;;;;;5053927;28;20478;-79
2023/10/05 07:55:24;;;;;;;20.50;4.17;;;16.80;1.00;;;;;;5057190;28;20171;-79
2023/10/05 07:57:50;;;;;;;14.13;3.77;;;17.00;1.00;;;;;;5058214;28;20436;-79
2023/10/05 08:00:16;;;;;;;8.30;3.20;;;17.40;1.00;;;;;;5056080;28;20408;-78
2023/10/05 08:02:42;;;;;;;17.83;4.27;;;17.70;99.90;;;;;;5057151;28;20443;-80
2023/10/05 08:05:09;;;;;;;12.37;4.70;;;18.20;99.90;;;;;;5058443;28;20189;-79
2023/10/05 08:07:35;;;;;;;9.40;3.60;;;18.80;1.00;;;;;;5040859;28;20629;-80
2023/10/05 08:10:00;;;;;;;7.93;3.10;;;19.30;1.00;;;;;;5058518;28;20456;-80
2023/10/05 08:12:29;;;;;;;8.73;3.57;;;19.50;1.00;;;;;;5058253;28;20257;-80
2023/10/05 08:14:57;;;;;;;9.60;2.70;;;19.60;1.00;;;;;;5058407;28;20182;-79
2023/10/05 08:17:23;;;;;;;11.20;2.63;;;19.60;1.00;;;;;;5055257;28;20536;-79
2023/10/05 08:19:49;;;;;;;8.60;2.90;;;19.70;99.90;;;;;;5040530;28;20839;-80
2023/10/05 08:22:17;;;;;;;12.53;2.60;;;19.90;99.90;;;;;;5057595;28;20417;-80
2023/10/05 08:24:43;;;;;;;14.80;3.33;;;19.90;99.90;;;;;;5058279;28;20284;-80
2023/10/05 08:27:14;;;;;;;11.17;2.63;;;19.80;99.90;;;;;;5041430;28;20456;-80
2023/10/05 08:29:42;;;;;;;8.70;3.40;;;19.70;99.90;;;;;;5058753;28;20471;-81
2023/10/05 08:32:13;;;;;;;11.73;3.30;;;19.50;99.90;;;;;;5057922;28;20455;-79
2023/10/05 08:34:44;;;;;;;13.50;3.83;;;19.60;99.90;;;;;;5054983;28;20995;-80
2023/10/05 08:37:11;;;;;;;15.33;3.47;;;19.70;99.90;;;;;;5058062;28;20422;-80
2023/10/05 08:39:37;;;;;;;8.30;3.30;;;19.80;99.90;;;;;;5058012;28;20409;-80
2023/10/05 08:42:06;;;;;;;11.20;3.10;;;20.00;99.90;;;;;;5057881;28;20417;-79
2023/10/05 08:44:38;;;;;;;16.37;2.97;;;20.00;99.90;;;;;;5058586;28;20280;-82
2023/10/05 08:47:05;;;;;;;11.23;2.93;;;20.10;99.90;;;;;;5041193;28;20428;-82
2023/10/05 08:49:34;;;;;;;11.23;3.13;;;20.10;99.90;;;;;;5059456;28;20457;-81
2023/10/05 08:52:08;;;;;;;10.57;2.90;;;20.10;99.90;;;;;;5055062;28;20470;-80
2023/10/05 08:54:34;;;;;;;22.23;4.20;;;20.10;99.90;;;;;;5059129;28;20459;-81
2023/10/05 08:57:09;;;;;;;8.57;3.43;;;20.10;99.90;;;;;;5058665;28;20447;-80
2023/10/05 08:59:34;;;;;;;13.10;3.20;;;20.10;99.90;;;;;;5059093;28;20173;-81
2023/10/05 09:02:00;;;;;;;9.60;3.30;;;20.20;99.90;;;;;;5058557;28;20454;-80
2023/10/05 09:04:43;;;;;;;7.83;2.80;;;20.20;99.90;;;;;;5059087;28;20285;-82
2023/10/05 09:07:08;;;;;;;7.70;2.70;;;20.40;99.90;;;;;;5040207;28;20216;-79
2023/10/05 09:09:39;;;;;;;6.33;2.80;;;20.50;99.90;;;;;;5055748;28;20467;-80
2023/10/05 09:12:41;;;;;;;7.30;3.43;;;20.50;99.90;;;;;;5058323;28;20209;-81
2023/10/05 09:20:42;;;;;;;19.23;3.60;;;20.10;99.90;;;;;;5048036;28;20412;-81
2023/10/05 09:23:20;;;;;;;7.23;2.80;;;19.90;99.90;;;;;;5058104;28;20436;-81
2023/10/05 09:25:46;;;;;;;9.47;3.10;;;19.80;99.90;;;;;;5055328;28;20408;-81
2023/10/05 09:28:13;;;;;;;7.43;2.63;;;19.70;99.90;;;;;;5058017;28;20961;-81
2023/10/05 09:30:56;;;;;;;6.30;2.97;;;19.70;99.90;;;;;;5040294;28;20425;-81
2023/10/05 09:33:33;;;;;;;5.60;2.60;;;19.80;99.90;;;;;;5049887;28;20555;-81
2023/10/05 09:36:16;;;;;;;11.70;2.93;;;19.90;99.90;;;;;;5058141;28;20420;-81
2023/10/05 09:38:43;;;;;;;7.63;3.20;;;19.90;99.90;;;;;;5057808;28;20489;-80
2023/10/05 09:41:11;;;;;;;11.53;3.40;;;19.90;99.90;;;;;;5058743;28;20428;-79
2023/10/05 09:43:39;;;;;;;7.00;3.50;;;19.80;99.90;;;;;;5055673;28;20481;-80
2023/10/05 09:46:09;;;;;;;10.70;3.70;;;19.80;99.90;;;;;;5058148;28;20413;-81
2023/10/05 09:48:37;;;;;;;11.80;3.47;;;19.70;99.90;;;;;;5057923;28;20444;-80
2023/10/05 09:51:06;;;;;;;15.17;3.57;;;19.70;99.90;;;;;;5057685;28;20922;-79
2023/10/05 09:53:35;;;;;;;9.53;3.37;;;19.60;99.90;;;;;;5039654;28;20470;-80
2023/10/05 09:56:01;;;;;;;5.33;3.00;;;19.70;99.90;;;;;;5057918;28;20801;-81
2023/10/05 09:58:28;;;;;;;8.40;3.10;;;19.60;99.90;;;;;;5057886;28;20448;-80
2023/10/05 10:00:55;;;;;;;6.47;2.53;;;19.60;99.90;;;;;;5056999;28;20471;-79
2023/10/05 10:03:22;;;;;;;6.23;2.43;;;19.60;99.90;;;;;;5044966;28;20456;-80
2023/10/05 10:06:07;;;;;;;8.60;3.30;;;19.50;99.90;;;;;;5043812;28;20444;-81
2023/10/05 10:08:34;;;;;;;6.50;3.00;;;19.60;99.90;;;;;;5053628;28;20408;-81
2023/10/05 10:11:06;;;;;;;10.70;3.70;;;19.60;99.90;;;;;;5053519;28;20421;-79
2023/10/05 10:13:37;;;;;;;12.73;3.30;;;19.60;99.90;;;;;;5046000;28;21094;-80
2023/10/05 10:16:15;;;;;;;9.40;3.50;;;19.70;99.90;;;;;;5035298;28;20456;-79
2023/10/05 10:18:43;;;;;;;6.87;2.83;;;19.70;99.90;;;;;;5053569;28;20834;-80
2023/10/05 10:21:25;;;;;;;5.67;2.40;;;19.70;99.90;;;;;;5035501;28;20459;-79
2023/10/05 10:24:11;;;;;;;7.83;3.73;;;19.60;99.90;;;;;;5052987;28;20440;-79
2023/10/05 10:27:08;;;;;;;5.33;2.77;;;19.50;99.90;;;;;;5038507;28;21142;-81
2023/10/05 10:29:45;;;;;;;7.57;2.90;;;19.30;99.90;;;;;;5058435;28;20854;-81
2023/10/05 10:32:34;;;;;;;11.40;3.00;;;19.20;99.90;;;;;;5057037;28;20487;-81
2023/10/05 10:35:10;;;;;;;11.03;2.67;;;19.20;99.90;;;;;;5040060;28;20416;-79
2023/10/05 10:37:42;;;;;;;9.23;3.20;;;19.10;99.90;;;;;;5058969;28;20412;-81
2023/10/05 10:45:33;;;;;;;9.63;3.53;;;19.20;99.90;;;;;;5053939;28;20479;-80
2023/10/05 10:47:59;;;;;;;7.40;3.03;;;19.40;99.90;;;;;;5057212;28;20531;-80
2023/10/05 10:50:31;;;;;;;31.20;19.93;;;19.40;99.90;;;;;;5056475;28;20417;-80
2023/10/05 10:53:05;;;;;;;10.37;3.33;;;19.60;99.90;;;;;;5038922;28;20468;-82
2023/10/05 10:55:32;;;;;;;5.60;3.00;;;19.70;99.90;;;;;;5039246;28;20534;-82
2023/10/05 10:57:59;;;;;;;8.90;4.07;;;19.90;99.90;;;;;;5057190;28;20451;-81
2023/10/05 11:03:15;;;;;;;7.30;2.90;;;20.20;99.90;;;;;;5053728;28;20471;-80
2023/10/05 11:05:44;;;;;;;10.00;3.83;;;20.20;99.90;;;;;;5056530;28;20439;-81
2023/10/05 11:08:11;;;;;;;5.90;2.90;;;20.30;99.90;;;;;;5056323;28;20734;-80
2023/10/05 11:10:37;;;;;;;8.30;2.80;;;20.30;99.90;;;;;;5056669;28;20987;-80
2023/10/05 11:13:19;;;;;;;8.70;3.00;;;20.30;99.90;;;;;;5056244;28;20472;-80
2023/10/05 11:16:01;;;;;;;9.70;2.73;;;20.30;99.90;;;;;;5054876;28;20932;-79
2023/10/05 11:18:31;;;;;;;8.37;3.23;;;20.40;99.90;;;;;;5032625;28;20443;-81
2023/10/05 11:21:09;;;;;;;7.83;2.80;;;20.40;99.90;;;;;;5034462;28;20405;-80
2023/10/05 11:23:43;;;;;;;9.50;2.50;;;20.50;99.90;;;;;;5051912;28;20432;-80
2023/10/05 11:26:18;;;;;;;4.87;2.73;;;20.80;99.90;;;;;;5034630;28;20417;-81
2023/10/05 11:28:51;;;;;;;5.93;3.17;;;21.20;99.90;;;;;;5053885;28;20403;-80
2023/10/05 11:31:24;;;;;;;7.17;2.73;;;21.50;99.90;;;;;;5058694;28;20493;-81
2023/10/05 11:33:53;;;;;;;12.60;3.20;;;21.90;99.90;;;;;;5042407;28;20464;-81
2023/10/05 11:36:27;;;;;;;7.70;3.30;;;22.60;99.90;;;;;;5052823;28;20530;-78
2023/10/05 11:38:57;;;;;;;12.33;3.17;;;23.40;99.90;;;;;;5036552;28;20515;-78
2023/10/05 11:41:25;;;;;;;7.73;3.10;;;24.20;99.90;;;;;;5054396;28;20447;-79
2023/10/05 11:43:55;;;;;;;6.23;5.50;;;25.00;99.90;;;;;;5057220;28;20440;-81
2023/10/05 11:46:24;;;;;;;6.43;2.67;;;25.50;99.90;;;;;;5059327;28;20424;-78
2023/10/05 11:48:55;;;;;;;6.67;2.67;;;26.40;99.90;;;;;;5057373;28;20428;-79
2023/10/05 11:51:27;;;;;;;6.90;2.57;;;27.00;99.90;;;;;;5057432;28;20423;-78
2023/10/05 11:53:55;;;;;;;7.70;2.60;;;27.70;99.90;;;;;;5053650;28;20568;-80
2023/10/05 11:56:21;;;;;;;5.33;2.67;;;28.30;99.90;;;;;;5056393;28;20502;-79
2023/10/05 11:58:47;;;;;;;6.63;2.30;;;28.50;99.90;;;;;;5057628;28;20432;-80
2023/10/05 12:01:14;;;;;;;26.70;24.10;;;29.00;99.90;;;;;;5056820;28;20502;-79
2023/10/05 12:03:44;;;;;;;12.67;8.87;;;29.50;99.90;;;;;;5057138;28;20198;-79
2023/10/05 12:06:12;;;;;;;5.97;2.20;;;29.80;99.90;;;;;;5057815;28;20431;-80
2023/10/05 12:08:38;;;;;;;13.77;3.30;;;29.90;99.90;;;;;;5057584;28;20834;-79
2023/10/05 12:11:04;;;;;;;4.50;2.03;;;29.90;99.90;;;;;;5041014;28;20450;-78
2023/10/05 12:13:29;;;;;;;8.90;2.67;;;29.60;99.90;;;;;;5056863;28;20552;-79
2023/10/05 12:15:58;;;;;;;4.57;2.10;;;29.70;99.90;;;;;;5056441;28;20188;-78
2023/10/05 12:18:24;;;;;;;6.83;2.37;;;29.60;99.90;;;;;;5057169;28;20177;-80
2023/10/05 12:20:49;;;;;;;5.93;2.20;;;29.70;99.90;;;;;;5057465;28;20420;-80
2023/10/05 12:23:15;;;;;;;5.03;1.87;;;29.50;99.90;;;;;;5057124;28;20794;-79
2023/10/05 12:25:42;;;;;;;4.53;2.00;;;29.50;99.90;;;;;;5057623;28;20200;-79
2023/10/05 12:28:08;;;;;;;7.43;2.10;;;29.30;99.90;;;;;;5053985;28;20210;-78
2023/10/05 12:30:35;;;;;;;9.37;2.13;;;29.80;99.90;;;;;;5057594;28;21088;-80
2023/10/05 12:33:03;;;;;;;7.57;2.13;;;30.10;99.90;;;;;;5057342;28;20477;-80
2023/10/05 12:35:29;;;;;;;9.03;2.73;;;30.20;99.90;;;;;;5057556;28;20554;-80
2023/10/05 12:37:58;;;;;;;5.47;2.33;;;30.50;99.90;;;;;;5057859;28;20425;-79
2023/10/05 12:40:33;;;;;;;6.40;2.23;;;30.40;99.90;;;;;;5056791;28;20425;-79
2023/10/05 12:42:59;;;;;;;6.27;1.80;;;30.20;99.90;;;;;;5057291;28;20963;-79
2023/10/05 12:45:25;;;;;;;12.07;3.87;;;30.00;99.90;;;;;;5057036;28;20444;-79
2023/10/05 12:47:55;;;;;;;7.10;2.50;;;29.80;99.90;;;;;;5059600;28;20429;-78
2023/10/05 12:50:29;;;;;;;8.00;2.07;;;29.60;99.90;;;;;;5059730;28;20217;-79
2023/10/05 12:52:58;;;;;;;5.10;2.50;;;29.40;99.90;;;;;;5056528;28;20463;-79
2023/10/05 12:55:29;;;;;;;6.70;2.73;;;29.10;99.90;;;;;;5056212;28;20421;-79
2023/10/05 12:57:55;;;;;;;7.10;2.57;;;28.20;99.90;;;;;;5055962;28;20584;-78
2023/10/05 13:00:25;;;;;;;7.00;1.97;;;27.80;99.90;;;;;;5035586;28;20802;-78
2023/10/05 13:02:52;;;;;;;7.10;2.00;;;27.50;99.90;;;;;;5056906;28;20445;-79
2023/10/05 13:05:20;;;;;;;6.17;2.30;;;27.40;99.90;;;;;;5039441;28;20803;-79
2023/10/05 13:07:50;;;;;;;5.90;1.83;;;26.90;99.90;;;;;;5056139;28;20425;-78
2023/10/05 13:10:21;;;;;;;5.30;1.90;;;26.20;99.90;;;;;;5056047;28;20417;-79
2023/10/05 13:12:51;;;;;;;13.47;2.47;;;26.00;99.90;;;;;;5038104;28;20503;-78
2023/10/05 13:15:19;;;;;;;5.93;2.60;;;25.70;99.90;;;;;;5056291;28;20421;-79
2023/10/05 13:17:46;;;;;;;12.17;2.47;;;25.50;99.90;;;;;;5045179;28;20450;-78
2023/10/05 13:20:15;;;;;;;5.63;3.23;;;25.40;99.90;;;;;;5056137;28;20790;-78
2023/10/05 13:22:44;;;;;;;5.33;2.20;;;25.60;99.90;;;;;;5055866;28;20416;-79